Terminal Aerodrome Forecast
Issued by NWS Grand Forks, ND

Home | Current Version | Previous Version | Graphics & Text | Print | Product List | Glossary On
Versions: 1 2 3 4 5 6 7 8 9 10 11 12 13
394
FTUS43 KFGF 180520
TAFFAR
TAF
KFAR 180520Z 1806/1906 05005KT P6SM BKN130
     FM181200 02010KT P6SM OVC080
     FM182200 01005KT P6SM BKN150=

USA.gov is the U.S. government's official web portal to all federal, state and local government web resources and services.